KSLC/SLC METAR and TAF weather

Enter ICAO airport designator
Station Type Date Time Source
KSLC METAR 2020/09/19 18:12 UTC NOAA

KSLC 191812Z 36007KT 8SM -RA FEW039 BKN055 BKN070 16/12 A3012 RMK AO2 TSB1755E10 P0002 T01560117


Station Type Date Time Source
KSLC Decoded METAR 2020/09/19 18:12 UTC NOAA

SALT LAKE CITY INTERNATIONAL AIRPORT , UT, United States (KSLC) 40-47N 111-58W 1286M
Sep 19, 2020 - 02:12 PM EDT / 2020.09.19 1812 UTC
Wind: from the N (360 degrees) at 8 MPH (7 KT):0
Visibility: 8 mile(s):0
Sky conditions: mostly cloudy
Weather: light rain
Precipitation last hour: 0.02 inches
Temperature: 60.1 F (15.6 C)
Dew Point: 53.1 F (11.7 C)
Relative Humidity: 77%
Pressure (altimeter): 30.12 in. Hg (1019 hPa)
ob: KSLC 191812Z 36007KT 8SM -RA FEW039 BKN055 BKN070 16/12 A3012 RMK AO2 TSB1755E10 P0002 T01560117
cycle: 18

Station Type Date Time Source
KSLC TAF 2020/09/19 18:45 UTC NOAA

TAF KSLC 191743Z 1918/2024 34010KT P6SM -SHRA BKN070 OVC100
FM191900 33010KT P6SM VCSH FEW070 BKN100
FM192200 34007KT P6SM SCT100
FM201000 15008KT P6SM SKC
FM201800 34009KT P6SM SKC

Example: see airport list